createdAt,value
2023-05-14T00:00:19.319Z,6.20
2023-05-14T00:01:21.768Z,5.95
2023-05-14T00:02:24.461Z,5.47
2023-05-14T00:03:26.851Z,6.13
2023-05-14T00:04:29.316Z,5.80
2023-05-14T00:05:31.826Z,6.47
2023-05-14T00:06:34.189Z,5.93
2023-05-14T00:07:36.417Z,6.10
2023-05-14T00:08:38.649Z,6.70
2023-05-14T00:09:41.168Z,6.47
2023-05-14T00:10:43.357Z,5.78
2023-05-14T00:11:46.105Z,6.50
2023-05-14T00:12:48.430Z,6.35
2023-05-14T00:13:50.938Z,5.65
2023-05-14T00:14:53.906Z,5.75
2023-05-14T00:15:56.085Z,5.53
2023-05-14T00:16:59.632Z,4.90
2023-05-14T00:18:02.006Z,5.70
2023-05-14T00:19:04.270Z,5.88
2023-05-14T00:20:12.050Z,6.15
2023-05-14T00:21:14.277Z,5.75
2023-05-14T00:22:16.480Z,6.15
2023-05-14T00:23:18.662Z,5.75
2023-05-14T00:24:20.880Z,5.28
2023-05-14T00:25:23.144Z,4.95
2023-05-14T00:26:25.354Z,6.10
2023-05-14T00:27:27.623Z,6.60
2023-05-14T00:28:29.776Z,6.25
2023-05-14T00:29:31.976Z,6.57
2023-05-14T00:30:54.276Z,6.38
2023-05-14T00:31:56.450Z,5.43
2023-05-14T00:32:58.749Z,5.35
2023-05-14T00:34:01.320Z,5.50
2023-05-14T00:35:04.314Z,5.60
2023-05-14T00:36:06.917Z,5.65
2023-05-14T00:37:09.882Z,6.15
2023-05-14T00:38:17.011Z,6.18
2023-05-14T00:39:19.154Z,6.43
2023-05-14T00:40:26.878Z,6.50
2023-05-14T00:41:29.084Z,6.72
2023-05-14T00:42:31.611Z,6.60
2023-05-14T00:43:33.860Z,6.18
2023-05-14T00:44:36.008Z,6.28
2023-05-14T00:45:38.800Z,6.35
2023-05-14T00:46:43.610Z,5.82
2023-05-14T00:47:47.900Z,6.53
2023-05-14T00:48:50.258Z,6.35
2023-05-14T00:49:52.795Z,6.70
2023-05-14T00:50:55.112Z,6.40
2023-05-14T00:52:00.341Z,6.10
2023-05-14T00:53:02.819Z,6.53
2023-05-14T00:54:06.365Z,6.05
2023-05-14T00:55:09.027Z,6.30
2023-05-14T00:56:11.647Z,6.53
2023-05-14T00:57:13.963Z,5.35
2023-05-14T00:58:17.679Z,5.88
2023-05-14T00:59:19.880Z,6.43
2023-05-14T01:00:22.328Z,6.05
2023-05-14T01:01:24.755Z,6.38
2023-05-14T01:02:27.094Z,6.30
2023-05-14T01:03:31.649Z,7.20
2023-05-14T01:04:35.192Z,6.30
2023-05-14T01:06:05.429Z,6.50
2023-05-14T01:07:29.197Z,6.70
2023-05-14T01:08:31.320Z,6.13
2023-05-14T01:09:49.603Z,6.45
2023-05-14T01:10:57.082Z,6.40
2023-05-14T01:12:29.804Z,5.88
2023-05-14T01:13:53.968Z,6.30
2023-05-14T01:15:09.279Z,6.32
2023-05-14T01:16:14.275Z,6.93
2023-05-14T01:17:20.030Z,6.47
2023-05-14T01:18:23.084Z,6.30
2023-05-14T01:19:44.414Z,8.20
2023-05-14T01:20:50.896Z,6.85
2023-05-14T01:21:53.161Z,5.63
2023-05-14T01:22:55.437Z,6.38
2023-05-14T01:23:57.635Z,5.95
2023-05-14T01:25:00.283Z,5.88
2023-05-14T01:26:02.444Z,5.93
2023-05-14T01:27:17.932Z,6.60
2023-05-14T01:28:28.694Z,6.70
2023-05-14T01:29:33.851Z,6.85
2023-05-14T01:30:45.818Z,6.80
2023-05-14T01:31:50.648Z,6.53
2023-05-14T01:32:56.396Z,6.88
2023-05-14T01:34:00.169Z,6.20
2023-05-14T01:35:03.914Z,5.95
2023-05-14T01:36:06.716Z,8.68
2023-05-14T01:37:12.340Z,6.95
2023-05-14T01:38:18.870Z,7.43
2023-05-14T01:39:22.932Z,6.43
2023-05-14T01:40:26.058Z,7.60
2023-05-14T01:41:29.591Z,6.53
2023-05-14T01:42:32.910Z,6.50
2023-05-14T01:43:36.149Z,6.53
2023-05-14T01:44:38.419Z,7.18
2023-05-14T01:45:41.449Z,6.45
2023-05-14T01:46:43.645Z,6.88
2023-05-14T01:47:45.947Z,7.72
2023-05-14T01:48:48.214Z,6.20
2023-05-14T01:49:50.618Z,6.82
2023-05-14T01:50:52.922Z,6.20
2023-05-14T01:51:55.185Z,6.45
2023-05-14T01:52:57.683Z,7.28
2023-05-14T01:54:00.065Z,6.57
2023-05-14T01:55:02.556Z,6.00
2023-05-14T01:56:04.891Z,5.80
2023-05-14T01:57:07.114Z,6.43
2023-05-14T01:58:09.309Z,6.82
2023-05-14T01:59:11.554Z,7.38
2023-05-14T02:02:08.462Z,6.07
2023-05-14T02:03:11.384Z,6.90
2023-05-14T02:04:13.705Z,6.28
2023-05-14T02:05:17.359Z,5.72
2023-05-14T02:06:19.548Z,5.93
2023-05-14T02:07:21.904Z,6.07
2023-05-14T02:08:24.061Z,6.20
2023-05-14T02:09:26.305Z,5.85
2023-05-14T02:10:28.472Z,6.38
2023-05-14T02:11:30.652Z,5.35
2023-05-14T02:12:33.024Z,6.05
2023-05-14T02:13:36.309Z,5.55
2023-05-14T02:14:38.809Z,6.15
2023-05-14T02:15:41.033Z,6.25
2023-05-14T02:16:43.502Z,6.20
2023-05-14T02:17:45.731Z,6.20
2023-05-14T02:18:48.032Z,5.70
2023-05-14T02:19:50.346Z,6.65
2023-05-14T02:20:52.569Z,6.22
2023-05-14T02:21:54.872Z,6.32
2023-05-14T02:22:57.055Z,7.70
2023-05-14T02:23:59.242Z,6.22
2023-05-14T02:25:01.530Z,6.22
2023-05-14T02:26:03.889Z,7.10
2023-05-14T02:27:06.299Z,6.13
2023-05-14T02:28:08.534Z,5.70
2023-05-14T02:29:11.469Z,6.03
2023-05-14T02:30:13.797Z,6.00
2023-05-14T02:31:17.608Z,6.68
2023-05-14T02:32:20.039Z,5.78
2023-05-14T02:33:22.553Z,5.97
2023-05-14T02:34:25.033Z,7.10
2023-05-14T02:35:27.408Z,6.18
2023-05-14T02:36:29.575Z,5.32
2023-05-14T02:37:31.906Z,5.97
2023-05-14T02:38:34.138Z,6.80
2023-05-14T02:39:36.464Z,7.10
2023-05-14T02:40:39.028Z,7.15
2023-05-14T02:41:41.214Z,7.10
2023-05-14T02:42:43.483Z,6.60
2023-05-14T02:43:46.149Z,7.18
2023-05-14T02:44:49.599Z,7.10
2023-05-14T02:45:52.543Z,7.78
2023-05-14T02:46:54.919Z,7.20
2023-05-14T02:47:57.263Z,7.18
2023-05-14T02:48:59.868Z,7.72
2023-05-14T02:50:02.061Z,7.60
2023-05-14T02:51:04.684Z,8.98
2023-05-14T02:52:07.223Z,8.00
2023-05-14T02:53:09.611Z,7.38
2023-05-14T02:54:12.224Z,6.93
2023-05-14T02:55:15.124Z,6.90
2023-05-14T02:56:17.785Z,6.45
2023-05-14T02:57:21.074Z,7.38
2023-05-14T02:58:27.432Z,6.57
2023-05-14T02:59:31.657Z,6.72
2023-05-14T03:00:34.681Z,6.80
2023-05-14T03:01:37.218Z,6.18
2023-05-14T03:02:40.204Z,6.82
2023-05-14T03:03:43.580Z,6.07
2023-05-14T03:04:46.737Z,6.30
2023-05-14T03:05:49.214Z,6.00
2023-05-14T03:06:51.690Z,6.03
2023-05-14T03:07:54.108Z,5.38
2023-05-14T03:08:56.235Z,5.78
2023-05-14T03:10:01.238Z,6.32
2023-05-14T03:11:04.014Z,6.75
2023-05-14T03:12:07.512Z,6.15
2023-05-14T03:13:09.931Z,5.80
2023-05-14T03:14:13.731Z,6.63
2023-05-14T03:15:17.746Z,6.50
2023-05-14T03:16:19.944Z,6.57
2023-05-14T03:17:22.452Z,6.40
2023-05-14T03:18:24.929Z,6.90
2023-05-14T03:19:27.182Z,7.20
2023-05-14T03:20:29.574Z,6.60
2023-05-14T03:21:32.055Z,7.60
2023-05-14T03:22:34.372Z,7.00
2023-05-14T03:23:36.673Z,6.75
2023-05-14T03:24:40.096Z,6.28
2023-05-14T03:25:42.238Z,6.10
2023-05-14T03:26:44.391Z,6.40
2023-05-14T03:27:46.609Z,6.13
2023-05-14T03:28:50.605Z,5.90
2023-05-14T03:29:52.820Z,6.05
2023-05-14T03:30:55.388Z,6.15
2023-05-14T03:31:57.784Z,5.88
2023-05-14T03:33:00.174Z,5.90
2023-05-14T03:34:02.643Z,6.15
2023-05-14T03:35:05.337Z,6.70
2023-05-14T03:36:08.323Z,6.15
2023-05-14T03:37:11.014Z,6.68
2023-05-14T03:38:13.182Z,6.85
2023-05-14T03:39:19.502Z,7.00
2023-05-14T03:40:22.014Z,5.80
2023-05-14T03:41:26.411Z,6.10
2023-05-14T03:42:28.688Z,5.32
2023-05-14T03:43:30.976Z,5.82
2023-05-14T03:44:33.291Z,5.60
2023-05-14T03:45:35.664Z,6.95
2023-05-14T03:46:37.998Z,5.50
2023-05-14T03:47:40.355Z,7.35
2023-05-14T03:48:42.815Z,6.70
2023-05-14T03:49:45.461Z,6.35
2023-05-14T03:50:49.741Z,6.32
2023-05-14T03:51:52.070Z,8.02
2023-05-14T03:52:55.121Z,6.85
2023-05-14T03:53:58.259Z,7.30
2023-05-14T03:55:00.568Z,6.75
2023-05-14T03:56:02.849Z,6.28
2023-05-14T03:57:05.148Z,6.65
2023-05-14T03:58:13.462Z,7.10
2023-05-14T03:59:15.994Z,6.93
2023-05-14T04:00:18.288Z,7.40
2023-05-14T04:01:20.528Z,7.25
2023-05-14T04:02:22.825Z,7.32
2023-05-14T04:03:25.208Z,6.18
2023-05-14T04:04:27.530Z,6.32
2023-05-14T04:05:29.747Z,7.45
2023-05-14T04:06:32.997Z,7.45
2023-05-14T04:07:37.156Z,5.80
2023-05-14T04:08:39.368Z,6.68
2023-05-14T04:09:41.504Z,6.93
2023-05-14T04:10:43.711Z,6.68
2023-05-14T04:11:46.222Z,5.60
2023-05-14T04:12:48.382Z,6.53
2023-05-14T04:13:50.612Z,6.75
2023-05-14T04:14:52.914Z,6.60
2023-05-14T04:15:55.108Z,6.70
2023-05-14T04:16:58.241Z,6.68
2023-05-14T04:18:02.404Z,6.43
2023-05-14T04:19:05.692Z,6.68
2023-05-14T04:20:08.330Z,5.40
2023-05-14T04:21:10.666Z,5.13
2023-05-14T04:22:13.248Z,5.20
2023-05-14T04:23:15.376Z,5.18
2023-05-14T04:24:17.629Z,5.03
2023-05-14T04:25:19.967Z,5.18
2023-05-14T04:26:22.938Z,5.40
2023-05-14T04:27:25.204Z,5.20
2023-05-14T04:28:27.586Z,4.88
2023-05-14T04:29:29.996Z,5.28
2023-05-14T04:30:32.308Z,5.65
2023-05-14T04:31:34.572Z,5.22
2023-05-14T04:32:36.868Z,4.78
2023-05-14T04:33:39.910Z,5.30
2023-05-14T04:34:42.421Z,5.30
2023-05-14T04:35:45.703Z,4.68
2023-05-14T04:36:47.888Z,5.30
2023-05-14T04:37:50.339Z,5.57
2023-05-14T04:38:52.630Z,5.20
2023-05-14T04:39:54.869Z,5.15
2023-05-14T04:40:57.124Z,4.97
2023-05-14T04:41:59.378Z,5.30
2023-05-14T04:43:01.644Z,5.28
2023-05-14T04:44:04.030Z,5.03
2023-05-14T04:45:06.987Z,5.35
2023-05-14T04:46:09.524Z,5.50
2023-05-14T04:47:12.685Z,5.70
2023-05-14T04:48:14.981Z,5.30
2023-05-14T04:49:17.257Z,5.60
2023-05-14T04:50:19.499Z,5.53
2023-05-14T04:51:21.786Z,5.22
2023-05-14T04:52:24.447Z,5.30
2023-05-14T04:53:26.712Z,5.32
2023-05-14T04:54:29.156Z,4.93
2023-05-14T04:55:31.419Z,5.15
2023-05-14T04:56:33.660Z,5.03
2023-05-14T04:57:35.846Z,5.28
2023-05-14T04:58:38.012Z,4.85
2023-05-14T04:59:40.350Z,5.05
2023-05-14T05:00:42.532Z,4.80
2023-05-14T05:01:45.767Z,5.30
2023-05-14T05:02:48.268Z,4.45
2023-05-14T05:03:50.945Z,4.90
2023-05-14T05:04:53.247Z,4.97
2023-05-14T05:05:55.453Z,4.30
2023-05-14T05:06:57.808Z,4.70
2023-05-14T05:08:00.075Z,4.70
2023-05-14T05:09:02.415Z,4.13
2023-05-14T05:10:04.917Z,4.75
2023-05-14T05:11:07.151Z,4.28
2023-05-14T05:12:09.561Z,4.57
2023-05-14T05:13:11.852Z,4.70
2023-05-14T05:14:14.141Z,4.30
2023-05-14T05:15:16.504Z,4.60
2023-05-14T05:16:18.736Z,4.53
2023-05-14T05:17:21.051Z,4.40
2023-05-14T05:18:23.283Z,4.50
2023-05-14T05:19:35.690Z,4.75
2023-05-14T05:20:42.266Z,4.55
2023-05-14T05:21:44.570Z,4.60
2023-05-14T05:22:46.786Z,4.75
2023-05-14T05:23:49.096Z,4.53
2023-05-14T05:24:51.275Z,4.78
2023-05-14T05:25:53.537Z,4.93
2023-05-14T05:26:56.420Z,5.22
2023-05-14T05:27:58.829Z,4.43
2023-05-14T05:29:01.051Z,5.20
2023-05-14T05:30:04.032Z,4.05
2023-05-14T05:31:07.559Z,4.55
2023-05-14T05:32:10.250Z,4.38
2023-05-14T05:33:12.752Z,4.47
2023-05-14T05:34:15.477Z,4.57
2023-05-14T05:35:17.685Z,4.50
2023-05-14T05:36:19.977Z,4.68
2023-05-14T05:37:22.248Z,4.80
2023-05-14T05:38:24.460Z,4.95
2023-05-14T05:39:26.621Z,4.60
2023-05-14T05:40:29.040Z,4.28
2023-05-14T05:41:31.212Z,4.55
2023-05-14T05:42:33.359Z,4.22
2023-05-14T05:43:35.634Z,4.38
2023-05-14T05:44:37.874Z,4.35
2023-05-14T05:45:40.657Z,4.03
2023-05-14T05:46:42.962Z,4.53
2023-05-14T05:47:45.630Z,4.78
2023-05-14T05:48:47.944Z,4.22
2023-05-14T05:49:50.115Z,4.70
2023-05-14T05:50:52.492Z,4.43
2023-05-14T05:51:54.769Z,5.15
2023-05-14T05:52:59.063Z,4.45
2023-05-14T05:54:01.316Z,4.90
2023-05-14T05:55:03.674Z,5.07
2023-05-14T05:56:06.463Z,5.28
2023-05-14T05:57:08.853Z,5.85
2023-05-14T05:58:11.048Z,5.53
2023-05-14T05:59:13.297Z,5.57
2023-05-14T06:00:17.109Z,5.30
2023-05-14T06:01:19.425Z,5.07
2023-05-14T06:02:21.687Z,5.30
2023-05-14T06:03:24.078Z,5.40
2023-05-14T06:04:26.277Z,5.95
2023-05-14T06:05:28.525Z,6.13
2023-05-14T06:06:32.642Z,6.07
2023-05-14T06:07:34.975Z,5.80
2023-05-14T06:08:37.241Z,5.22
2023-05-14T06:09:39.412Z,5.78
2023-05-14T06:10:41.623Z,5.75
2023-05-14T06:11:43.796Z,5.50
2023-05-14T06:12:46.131Z,6.05
2023-05-14T06:13:48.375Z,5.57
2023-05-14T06:14:51.310Z,5.80
2023-05-14T06:15:53.464Z,6.00
2023-05-14T06:16:55.817Z,5.55
2023-05-14T06:17:58.127Z,6.38
2023-05-14T06:19:00.433Z,5.75
2023-05-14T06:20:02.634Z,6.35
2023-05-14T06:21:04.868Z,6.07
2023-05-14T06:22:07.056Z,6.10
2023-05-14T06:23:09.263Z,6.40
2023-05-14T06:24:11.475Z,6.00
2023-05-14T06:25:13.720Z,6.10
2023-05-14T06:26:15.958Z,6.20
2023-05-14T06:27:18.142Z,6.22
2023-05-14T06:28:20.612Z,6.10
2023-05-14T06:29:22.762Z,6.75
2023-05-14T06:30:25.139Z,6.10
2023-05-14T06:31:27.586Z,6.53
2023-05-14T06:32:29.921Z,6.35
2023-05-14T06:33:32.380Z,6.65
2023-05-14T06:34:34.568Z,6.65
2023-05-14T06:35:36.963Z,6.20
2023-05-14T06:36:39.203Z,7.10
2023-05-14T06:37:41.452Z,7.00
2023-05-14T06:38:43.645Z,6.50
2023-05-14T06:39:50.086Z,6.40
2023-05-14T06:40:55.514Z,7.25
2023-05-14T06:41:57.720Z,6.03
2023-05-14T06:43:00.060Z,5.97
2023-05-14T06:44:02.198Z,5.75
2023-05-14T06:45:05.872Z,6.53
2023-05-14T06:46:08.080Z,6.78
2023-05-14T06:47:10.640Z,6.47
2023-05-14T06:48:13.238Z,6.53
2023-05-14T06:49:15.525Z,6.50
2023-05-14T06:50:17.841Z,6.47
2023-05-14T06:51:20.031Z,6.80
2023-05-14T06:52:22.296Z,6.70
2023-05-14T06:53:24.466Z,6.63
2023-05-14T06:54:26.690Z,6.30
2023-05-14T06:55:28.854Z,5.97
2023-05-14T06:56:31.122Z,6.15
2023-05-14T06:57:34.280Z,5.70
2023-05-14T06:58:36.447Z,6.13
2023-05-14T06:59:38.668Z,6.15
2023-05-14T07:00:41.021Z,6.28
2023-05-14T07:01:43.306Z,6.22
2023-05-14T07:02:45.656Z,6.18
2023-05-14T07:03:47.916Z,5.68
2023-05-14T07:04:50.161Z,6.40
2023-05-14T07:05:52.417Z,6.22
2023-05-14T07:06:54.628Z,6.35
2023-05-14T07:07:56.912Z,5.75
2023-05-14T07:09:01.273Z,6.25
2023-05-14T07:10:03.783Z,5.72
2023-05-14T07:11:05.910Z,5.75
2023-05-14T07:12:08.379Z,5.18
2023-05-14T07:13:10.773Z,5.80
2023-05-14T07:14:12.993Z,6.20
2023-05-14T07:15:15.719Z,5.75
2023-05-14T07:16:17.959Z,5.85
2023-05-14T07:17:20.344Z,5.57
2023-05-14T07:18:24.033Z,5.97
2023-05-14T07:19:28.551Z,5.70
2023-05-14T07:20:30.845Z,5.25
2023-05-14T07:21:33.057Z,5.53
2023-05-14T07:22:35.321Z,6.00
2023-05-14T07:23:38.310Z,5.70
2023-05-14T07:24:40.869Z,5.22
2023-05-14T07:25:43.125Z,5.28
2023-05-14T07:26:45.454Z,6.13
2023-05-14T07:27:47.721Z,6.05
2023-05-14T07:28:50.000Z,5.78
2023-05-14T07:29:52.173Z,5.97
2023-05-14T07:30:54.392Z,5.80
2023-05-14T07:31:56.732Z,5.32
2023-05-14T07:32:59.011Z,5.50
2023-05-14T07:34:01.231Z,5.75
2023-05-14T07:35:03.880Z,5.60
2023-05-14T07:36:06.952Z,5.63
2023-05-14T07:37:09.384Z,5.70
2023-05-14T07:38:11.608Z,5.25
2023-05-14T07:39:13.905Z,5.22
2023-05-14T07:40:16.256Z,5.60
2023-05-14T07:41:18.455Z,5.40
2023-05-14T07:42:34.548Z,5.40
2023-05-14T07:43:38.938Z,6.20
2023-05-14T07:44:41.153Z,6.00
2023-05-14T07:45:43.387Z,5.95
2023-05-14T07:46:45.560Z,5.32
2023-05-14T07:47:51.817Z,5.93
2023-05-14T07:48:54.295Z,6.22
2023-05-14T07:49:57.462Z,6.30
2023-05-14T07:50:59.905Z,6.50
2023-05-14T07:52:02.264Z,6.20
2023-05-14T07:53:04.467Z,6.13
2023-05-14T07:54:06.688Z,6.22
2023-05-14T07:55:09.284Z,6.55
2023-05-14T07:56:11.436Z,6.55
2023-05-14T07:57:13.610Z,6.57
2023-05-14T07:58:16.576Z,6.80
2023-05-14T07:59:18.736Z,6.20
2023-05-14T08:00:21.099Z,6.47
2023-05-14T08:01:23.473Z,6.03
2023-05-14T08:02:26.063Z,6.90
2023-05-14T08:03:28.457Z,5.95
2023-05-14T08:04:30.976Z,6.30
2023-05-14T08:05:33.230Z,6.13
2023-05-14T08:06:35.573Z,6.80
2023-05-14T08:07:37.810Z,5.82
2023-05-14T08:08:40.195Z,6.30
2023-05-14T08:09:42.380Z,6.97
2023-05-14T08:10:44.631Z,7.50
2023-05-14T08:11:46.871Z,6.72
2023-05-14T08:12:49.014Z,6.75
2023-05-14T08:13:51.270Z,6.68
2023-05-14T08:14:53.511Z,6.78
2023-05-14T08:15:56.075Z,5.93
2023-05-14T08:16:58.590Z,6.05
2023-05-14T08:18:03.583Z,6.22
2023-05-14T08:19:06.312Z,6.47
2023-05-14T08:20:09.935Z,6.57
2023-05-14T08:21:12.215Z,6.72
2023-05-14T08:22:14.457Z,6.13
2023-05-14T08:23:16.728Z,6.10
2023-05-14T08:24:19.141Z,6.47
2023-05-14T08:25:21.277Z,6.65
2023-05-14T08:26:23.481Z,6.45
2023-05-14T08:27:26.352Z,6.45
2023-05-14T08:28:28.621Z,6.90
2023-05-14T08:29:30.794Z,6.68
2023-05-14T08:30:33.253Z,6.85
2023-05-14T08:31:35.585Z,6.80
2023-05-14T08:32:38.578Z,6.78
2023-05-14T08:33:41.264Z,6.53
2023-05-14T08:34:44.102Z,6.05
2023-05-14T08:35:46.348Z,6.25
2023-05-14T08:36:48.542Z,6.40
2023-05-14T08:37:51.388Z,6.45
2023-05-14T08:38:53.525Z,7.07
2023-05-14T08:39:56.242Z,6.05
2023-05-14T08:40:59.669Z,6.30
2023-05-14T08:42:06.203Z,6.07
2023-05-14T08:43:10.783Z,6.05
2023-05-14T08:44:14.980Z,5.40
2023-05-14T08:45:19.972Z,6.30
2023-05-14T08:46:24.282Z,6.15
2023-05-14T08:47:26.669Z,6.35
2023-05-14T08:48:33.420Z,6.13
2023-05-14T08:49:42.954Z,6.68
2023-05-14T08:50:45.429Z,6.07
2023-05-14T08:51:48.417Z,6.20
2023-05-14T08:52:51.567Z,6.07
2023-05-14T08:53:53.779Z,6.07
2023-05-14T08:54:57.304Z,6.50
2023-05-14T08:56:01.353Z,6.22
2023-05-14T08:57:04.529Z,5.53
2023-05-14T08:58:06.918Z,6.50
2023-05-14T08:59:09.106Z,5.50
2023-05-14T09:00:12.104Z,6.38
2023-05-14T09:01:14.488Z,5.97
2023-05-14T09:02:19.243Z,6.13
2023-05-14T09:03:22.959Z,5.60
2023-05-14T09:04:25.335Z,6.57
2023-05-14T09:05:28.079Z,6.35
2023-05-14T09:06:31.123Z,5.57
2023-05-14T09:07:33.585Z,5.38
2023-05-14T09:08:36.337Z,6.00
2023-05-14T09:09:38.699Z,6.05
2023-05-14T09:10:41.031Z,6.22
2023-05-14T09:11:46.430Z,5.57
2023-05-14T09:12:48.603Z,5.85
2023-05-14T09:13:50.771Z,5.53
2023-05-14T09:14:53.388Z,5.70
2023-05-14T09:15:56.272Z,5.85
2023-05-14T09:16:59.158Z,5.78
2023-05-14T09:18:01.923Z,5.75
2023-05-14T09:19:04.976Z,5.50
2023-05-14T09:20:09.285Z,5.85
2023-05-14T09:21:14.238Z,5.32
2023-05-14T09:22:18.128Z,6.28
2023-05-14T09:23:20.312Z,5.57
2023-05-14T09:24:24.257Z,5.15
2023-05-14T09:25:28.313Z,5.13
2023-05-14T09:26:32.583Z,5.55
2023-05-14T09:27:36.139Z,5.88
2023-05-14T09:28:43.890Z,5.65
2023-05-14T09:29:46.166Z,5.22
2023-05-14T09:30:52.227Z,5.85
2023-05-14T09:31:55.429Z,5.38
2023-05-14T09:32:57.687Z,5.97
2023-05-14T09:34:00.664Z,5.45
2023-05-14T09:35:21.678Z,5.40
2023-05-14T09:36:25.024Z,5.13
2023-05-14T09:37:28.546Z,5.53
2023-05-14T09:38:32.016Z,5.65
2023-05-14T09:39:36.472Z,4.97
2023-05-14T09:40:39.236Z,5.40
2023-05-14T09:41:41.742Z,5.78
2023-05-14T09:42:44.306Z,5.50
2023-05-14T09:43:46.531Z,5.55
2023-05-14T09:44:48.687Z,4.90
2023-05-14T09:45:51.021Z,5.60
2023-05-14T09:46:53.925Z,6.47
2023-05-14T09:47:59.850Z,5.75
2023-05-14T09:49:02.330Z,5.50
2023-05-14T09:50:05.702Z,5.32
2023-05-14T09:51:12.710Z,5.30
2023-05-14T09:52:14.963Z,4.80
2023-05-14T09:53:17.706Z,5.30
2023-05-14T09:54:20.152Z,5.30
2023-05-14T09:55:22.935Z,5.55
2023-05-14T09:56:25.188Z,5.32
2023-05-14T09:57:27.684Z,5.13
2023-05-14T09:58:30.026Z,5.50
2023-05-14T09:59:32.293Z,5.35
2023-05-14T10:00:35.122Z,5.28
2023-05-14T10:01:38.236Z,5.30
2023-05-14T10:02:42.698Z,5.07
2023-05-14T10:03:45.444Z,5.53
2023-05-14T10:04:51.250Z,4.90
2023-05-14T10:05:56.016Z,4.43
2023-05-14T10:06:58.982Z,4.15
2023-05-14T10:08:05.858Z,4.28
2023-05-14T10:09:12.924Z,4.65
2023-05-14T10:10:26.584Z,5.05
2023-05-14T10:11:33.020Z,4.43
2023-05-14T10:12:38.811Z,5.03
2023-05-14T10:13:45.688Z,4.82
2023-05-14T10:14:53.670Z,4.88
2023-05-14T10:16:28.240Z,4.30
2023-05-14T10:17:34.204Z,4.50
2023-05-14T10:18:41.408Z,4.50
2023-05-14T10:19:52.400Z,6.63
2023-05-14T10:21:05.676Z,4.13
2023-05-14T10:22:12.592Z,4.18
2023-05-14T10:23:15.208Z,3.72
2023-05-14T10:24:19.040Z,3.53
2023-05-14T10:25:21.716Z,3.90
2023-05-14T10:26:25.125Z,4.10
2023-05-14T10:27:27.554Z,4.80
2023-05-14T10:28:31.002Z,4.05
2023-05-14T10:29:37.775Z,3.70
2023-05-14T10:30:46.957Z,3.97
2023-05-14T10:31:56.388Z,3.80
2023-05-14T10:33:09.357Z,4.03
2023-05-14T10:34:44.375Z,4.45
2023-05-14T10:35:55.630Z,3.97
2023-05-14T10:37:02.072Z,4.57
2023-05-14T10:38:08.721Z,4.75
2023-05-14T10:39:11.008Z,4.32
2023-05-14T10:40:14.053Z,4.20
2023-05-14T10:41:21.359Z,4.63
2023-05-14T10:42:27.365Z,3.88
2023-05-14T10:43:30.936Z,4.03
2023-05-14T10:44:35.271Z,4.50
2023-05-14T10:45:37.734Z,4.75
2023-05-14T10:46:40.302Z,4.75
2023-05-14T10:47:45.910Z,4.22
2023-05-14T10:48:50.149Z,3.63
2023-05-14T10:49:56.047Z,4.20
2023-05-14T10:50:58.422Z,3.67
2023-05-14T10:52:01.985Z,3.90
2023-05-14T10:53:04.341Z,4.15
2023-05-14T10:54:08.196Z,4.40
2023-05-14T10:55:14.285Z,4.43
2023-05-14T10:56:16.857Z,4.78
2023-05-14T10:57:20.852Z,4.82
2023-05-14T10:58:23.310Z,4.47
2023-05-14T10:59:28.460Z,5.63
2023-05-14T11:00:34.378Z,4.72
2023-05-14T11:01:36.737Z,4.80
2023-05-14T11:02:47.952Z,5.15
2023-05-14T11:03:53.364Z,4.43
2023-05-14T11:05:03.964Z,4.80
2023-05-14T11:06:12.245Z,4.68
2023-05-14T11:07:14.536Z,4.50
2023-05-14T11:08:16.999Z,4.50
2023-05-14T11:09:22.321Z,4.50
2023-05-14T11:10:31.178Z,4.07
2023-05-14T11:11:33.477Z,3.78
2023-05-14T11:12:40.919Z,3.88
2023-05-14T11:13:44.549Z,3.65
2023-05-14T11:14:47.204Z,3.72
2023-05-14T11:15:49.575Z,4.43
2023-05-14T11:16:52.046Z,4.18
2023-05-14T11:17:54.699Z,4.20
2023-05-14T11:19:04.437Z,4.10
2023-05-14T11:20:07.919Z,4.45
2023-05-14T11:21:10.253Z,4.43
2023-05-14T11:22:13.750Z,4.50
2023-05-14T11:23:15.890Z,4.30
2023-05-14T11:24:18.438Z,4.20
2023-05-14T11:25:21.632Z,4.65
2023-05-14T11:26:24.415Z,4.13
2023-05-14T11:27:26.796Z,3.90
2023-05-14T11:28:29.719Z,3.50
2023-05-14T11:29:31.917Z,4.07
2023-05-14T11:30:35.060Z,3.30
2023-05-14T11:31:37.330Z,3.60
2023-05-14T11:32:40.821Z,3.45
2023-05-14T11:33:43.253Z,3.88
2023-05-14T11:34:46.761Z,4.80
2023-05-14T11:35:48.959Z,3.70
2023-05-14T11:36:51.208Z,4.00
2023-05-14T11:37:53.492Z,4.00
2023-05-14T11:38:55.732Z,3.88
2023-05-14T11:40:00.912Z,3.95
2023-05-14T11:41:04.895Z,4.40
2023-05-14T11:42:16.218Z,4.35
2023-05-14T11:43:18.605Z,4.35
2023-05-14T11:44:21.035Z,3.55
2023-05-14T11:45:27.361Z,3.60
2023-05-14T11:46:30.954Z,3.60
2023-05-14T11:47:33.381Z,4.03
2023-05-14T11:48:35.639Z,4.00
2023-05-14T11:49:38.137Z,3.67
2023-05-14T11:50:41.185Z,4.10
2023-05-14T11:51:43.673Z,3.50
2023-05-14T11:52:47.992Z,3.72
2023-05-14T11:53:50.296Z,3.60
2023-05-14T11:54:52.537Z,3.75
2023-05-14T11:55:55.280Z,3.42
2023-05-14T11:56:59.119Z,3.60
2023-05-14T11:58:01.533Z,3.38
2023-05-14T11:59:03.757Z,3.63
2023-05-14T12:00:09.169Z,3.60
2023-05-14T12:01:13.502Z,3.42
2023-05-14T12:02:18.042Z,3.90
2023-05-14T12:03:26.263Z,3.80
2023-05-14T12:04:29.094Z,3.88
2023-05-14T12:05:31.578Z,3.38
2023-05-14T12:06:33.810Z,3.42
2023-05-14T12:07:36.017Z,3.63
2023-05-14T12:08:38.257Z,3.72
2023-05-14T12:09:45.152Z,3.20
2023-05-14T12:10:47.682Z,3.67
2023-05-14T12:11:51.539Z,3.42
2023-05-14T12:12:53.797Z,4.00
2023-05-14T12:13:55.942Z,3.50
2023-05-14T12:14:59.885Z,3.20
2023-05-14T12:16:02.639Z,3.38
2023-05-14T12:17:21.954Z,3.63
2023-05-14T12:18:32.338Z,3.33
2023-05-14T12:19:40.028Z,3.60
2023-05-14T12:20:47.483Z,3.42
2023-05-14T12:21:51.067Z,3.50
2023-05-14T12:22:53.274Z,3.58
2023-05-14T12:23:59.994Z,3.80
2023-05-14T12:25:02.223Z,3.70
2023-05-14T12:26:06.360Z,3.50
2023-05-14T12:27:10.465Z,2.95
2023-05-14T12:28:16.464Z,3.20
2023-05-14T12:29:21.712Z,3.63
2023-05-14T12:30:24.015Z,2.85
2023-05-14T12:31:33.646Z,3.33
2023-05-14T12:32:37.948Z,3.28
2023-05-14T12:33:40.598Z,3.47
2023-05-14T12:34:42.840Z,3.53
2023-05-14T12:35:45.063Z,3.58
2023-05-14T12:36:47.556Z,3.55
2023-05-14T12:37:49.781Z,3.05
2023-05-14T12:39:00.518Z,3.33
2023-05-14T12:40:11.890Z,3.92
2023-05-14T12:41:14.128Z,3.47
2023-05-14T12:42:16.567Z,4.00
2023-05-14T12:43:19.288Z,4.22
2023-05-14T12:44:22.609Z,3.83
2023-05-14T12:45:25.233Z,3.90
2023-05-14T12:46:27.848Z,3.78
2023-05-14T12:47:30.175Z,3.90
2023-05-14T12:48:32.679Z,3.80
2023-05-14T12:49:34.874Z,3.70
2023-05-14T12:50:37.096Z,3.55
2023-05-14T12:51:39.238Z,3.53
2023-05-14T12:52:41.842Z,3.13
2023-05-14T12:53:44.073Z,3.60
2023-05-14T12:54:46.223Z,3.38
2023-05-14T12:55:49.594Z,3.60
2023-05-14T12:56:51.862Z,3.53
2023-05-14T12:57:54.368Z,3.67
2023-05-14T12:58:56.727Z,3.58
2023-05-14T12:59:59.160Z,3.53
2023-05-14T13:01:01.528Z,3.47
2023-05-14T13:02:03.852Z,3.13
2023-05-14T13:03:06.078Z,3.75
2023-05-14T13:04:12.461Z,3.17
2023-05-14T13:05:14.851Z,3.03
2023-05-14T13:06:17.168Z,3.20
2023-05-14T13:07:19.352Z,3.30
2023-05-14T13:08:24.857Z,3.25
2023-05-14T13:09:28.006Z,3.83
2023-05-14T13:10:30.420Z,3.33
2023-05-14T13:11:32.986Z,3.20
2023-05-14T13:12:35.258Z,3.30
2023-05-14T13:13:37.410Z,3.25
2023-05-14T13:14:39.765Z,3.10
2023-05-14T13:15:42.156Z,3.30
2023-05-14T13:16:44.398Z,2.78
2023-05-14T13:17:46.690Z,3.00
2023-05-14T13:18:48.904Z,2.92
2023-05-14T13:19:51.096Z,2.92
2023-05-14T13:20:54.002Z,3.22
2023-05-14T13:21:56.309Z,3.72
2023-05-14T13:22:58.474Z,3.00
2023-05-14T13:24:00.963Z,3.47
2023-05-14T13:25:03.316Z,3.15
2023-05-14T13:26:05.574Z,2.75
2023-05-14T13:27:07.714Z,2.92
2023-05-14T13:28:10.079Z,2.97
2023-05-14T13:29:12.382Z,3.38
2023-05-14T13:30:15.304Z,3.40
2023-05-14T13:31:17.506Z,3.28
2023-05-14T13:32:19.772Z,2.90
2023-05-14T13:33:21.935Z,3.20
2023-05-14T13:34:24.212Z,2.90
2023-05-14T13:35:26.540Z,3.20
2023-05-14T13:36:28.969Z,3.20
2023-05-14T13:37:31.182Z,2.90
2023-05-14T13:38:33.900Z,3.30
2023-05-14T13:39:36.115Z,2.78
2023-05-14T13:40:38.303Z,2.70
2023-05-14T13:41:40.714Z,3.63
2023-05-14T13:42:43.010Z,3.30
2023-05-14T13:43:45.218Z,3.08
2023-05-14T13:44:47.468Z,2.80
2023-05-14T13:45:50.176Z,2.60
2023-05-14T13:46:52.883Z,3.00
2023-05-14T13:47:56.580Z,2.63
2023-05-14T13:48:58.881Z,2.80
2023-05-14T13:50:01.225Z,2.67
2023-05-14T13:51:03.577Z,2.40
2023-05-14T13:52:06.558Z,3.05
2023-05-14T13:53:08.820Z,3.30
2023-05-14T13:54:11.152Z,3.47
2023-05-14T13:55:13.573Z,3.40
2023-05-14T13:56:15.818Z,3.42
2023-05-14T13:57:18.170Z,3.08
2023-05-14T13:58:20.537Z,3.58
2023-05-14T13:59:23.830Z,3.22
2023-05-14T14:00:27.053Z,3.67
2023-05-14T14:01:31.029Z,3.00
2023-05-14T14:02:34.258Z,3.05
2023-05-14T14:03:36.746Z,3.70
2023-05-14T14:04:39.116Z,3.10
2023-05-14T14:05:41.352Z,3.17
2023-05-14T14:06:43.937Z,3.30